Nabq, Egypt
Current Conditions -  °F | °C
As of 2:00 PM on Saturday 25 Oct 2014 (Local Time) from HESH Reporting Station
Clear Clear  
Wind Chill: 90°   Ceiling: Unl
Heat Index: 90°   Visibility: 6mi
Dew Point: 59°   Wind: 14mph
Humidity: 36%   Direction: 40°NE
Pressure: 29.85"   Gusts: NA
Location:  28.07°N, 34.42°E
Report Text: HESH 251200Z 04012KT CAVOK 32/15 Q1011 NOSIG
Loading
Personal Weather Stations






























Interactive Weather Map
Tropical Storm Tracking
New forecast layout! Learn more

10-Day Weather Forecast

Advertisements
Track Severe Weather on mobile